sensor_id;sensor_type;location;lat;lon;timestamp;temperature;humidity
9329;DHT22;4703;48.748;19.142;2022-11-20T00:01:29;2.20;99.90
9329;DHT22;4703;48.748;19.142;2022-11-20T00:03:57;2.20;99.90
9329;DHT22;4703;48.748;19.142;2022-11-20T00:06:25;2.20;99.90
9329;DHT22;4703;48.748;19.142;2022-11-20T00:08:58;2.30;99.90
9329;DHT22;4703;48.748;19.142;2022-11-20T00:11:27;2.20;99.90
9329;DHT22;4703;48.748;19.142;2022-11-20T00:13:57;2.30;99.90
9329;DHT22;4703;48.748;19.142;2022-11-20T00:16:27;2.40;99.90
9329;DHT22;4703;48.748;19.142;2022-11-20T00:18:55;2.30;99.90
9329;DHT22;4703;48.748;19.142;2022-11-20T00:21:26;2.30;99.90
9329;DHT22;4703;48.748;19.142;2022-11-20T00:23:55;2.40;99.90
9329;DHT22;4703;48.748;19.142;2022-11-20T00:26:25;2.40;99.90
9329;DHT22;4703;48.748;19.142;2022-11-20T00:28:56;2.30;99.90
9329;DHT22;4703;48.748;19.142;2022-11-20T00:31:25;2.40;99.90
9329;DHT22;4703;48.748;19.142;2022-11-20T00:33:52;2.40;99.90
9329;DHT22;4703;48.748;19.142;2022-11-20T00:36:24;2.40;99.90
9329;DHT22;4703;48.748;19.142;2022-11-20T00:38:53;2.40;99.90
9329;DHT22;4703;48.748;19.142;2022-11-20T00:41:22;2.40;99.90
9329;DHT22;4703;48.748;19.142;2022-11-20T00:43:52;2.40;99.90
9329;DHT22;4703;48.748;19.142;2022-11-20T00:46:22;2.40;99.90
9329;DHT22;4703;48.748;19.142;2022-11-20T00:48:50;2.40;99.90
9329;DHT22;4703;48.748;19.142;2022-11-20T00:51:20;2.40;99.90
9329;DHT22;4703;48.748;19.142;2022-11-20T00:53:48;2.50;99.90
9329;DHT22;4703;48.748;19.142;2022-11-20T00:56:17;2.40;99.90
9329;DHT22;4703;48.748;19.142;2022-11-20T00:58:46;2.40;99.90
9329;DHT22;4703;48.748;19.142;2022-11-20T01:01:20;2.40;99.90
9329;DHT22;4703;48.748;19.142;2022-11-20T01:03:50;2.40;99.90
9329;DHT22;4703;48.748;19.142;2022-11-20T01:08:53;2.30;99.90
9329;DHT22;4703;48.748;19.142;2022-11-20T01:11:33;2.40;99.90
9329;DHT22;4703;48.748;19.142;2022-11-20T01:14:03;2.40;99.90
9329;DHT22;4703;48.748;19.142;2022-11-20T01:16:34;2.40;99.90
9329;DHT22;4703;48.748;19.142;2022-11-20T01:19:05;2.30;99.90
9329;DHT22;4703;48.748;19.142;2022-11-20T01:21:38;2.30;99.90
9329;DHT22;4703;48.748;19.142;2022-11-20T01:24:07;2.30;99.90
9329;DHT22;4703;48.748;19.142;2022-11-20T01:26:38;2.30;99.90
9329;DHT22;4703;48.748;19.142;2022-11-20T01:29:08;2.30;99.90
9329;DHT22;4703;48.748;19.142;2022-11-20T01:31:42;2.40;99.90
9329;DHT22;4703;48.748;19.142;2022-11-20T01:34:16;2.30;99.90
9329;DHT22;4703;48.748;19.142;2022-11-20T01:36:45;2.20;99.90
9329;DHT22;4703;48.748;19.142;2022-11-20T01:39:24;2.20;99.90
9329;DHT22;4703;48.748;19.142;2022-11-20T01:41:53;2.30;99.90
9329;DHT22;4703;48.748;19.142;2022-11-20T01:45:00;2.30;99.90
9329;DHT22;4703;48.748;19.142;2022-11-20T01:50:17;2.40;99.90
9329;DHT22;4703;48.748;19.142;2022-11-20T01:53:01;2.40;99.90
9329;DHT22;4703;48.748;19.142;2022-11-20T01:55:33;2.30;99.90
9329;DHT22;4703;48.748;19.142;2022-11-20T01:58:05;2.30;99.90
9329;DHT22;4703;48.748;19.142;2022-11-20T02:00:33;2.30;99.90
9329;DHT22;4703;48.748;19.142;2022-11-20T02:03:05;2.30;99.90
9329;DHT22;4703;48.748;19.142;2022-11-20T02:05:41;2.30;99.90
9329;DHT22;4703;48.748;19.142;2022-11-20T02:08:13;2.30;99.90
9329;DHT22;4703;48.748;19.142;2022-11-20T02:10:40;2.40;99.90
9329;DHT22;4703;48.748;19.142;2022-11-20T02:13:08;2.40;99.90
9329;DHT22;4703;48.748;19.142;2022-11-20T02:15:53;2.40;99.90
9329;DHT22;4703;48.748;19.142;2022-11-20T02:18:21;2.40;99.90
9329;DHT22;4703;48.748;19.142;2022-11-20T02:20:51;4.20;99.90
9329;DHT22;4703;48.748;19.142;2022-11-20T02:26:29;2.50;99.90
9329;DHT22;4703;48.748;19.142;2022-11-20T02:28:59;2.50;99.90
9329;DHT22;4703;48.748;19.142;2022-11-20T02:31:28;2.60;99.90
9329;DHT22;4703;48.748;19.142;2022-11-20T02:33:57;2.60;99.90
9329;DHT22;4703;48.748;19.142;2022-11-20T02:36:26;2.60;99.90
9329;DHT22;4703;48.748;19.142;2022-11-20T02:38:54;2.60;99.90
9329;DHT22;4703;48.748;19.142;2022-11-20T02:41:31;2.60;99.90
9329;DHT22;4703;48.748;19.142;2022-11-20T02:43:59;2.60;99.90
9329;DHT22;4703;48.748;19.142;2022-11-20T02:46:26;2.60;99.90
9329;DHT22;4703;48.748;19.142;2022-11-20T02:51:20;2.60;99.90
9329;DHT22;4703;48.748;19.142;2022-11-20T02:53:47;2.60;99.90
9329;DHT22;4703;48.748;19.142;2022-11-20T02:56:14;2.60;99.90
9329;DHT22;4703;48.748;19.142;2022-11-20T02:58:42;2.60;99.90
9329;DHT22;4703;48.748;19.142;2022-11-20T03:01:08;2.50;99.90
9329;DHT22;4703;48.748;19.142;2022-11-20T03:03:35;2.60;99.90
9329;DHT22;4703;48.748;19.142;2022-11-20T03:06:03;2.60;99.90
9329;DHT22;4703;48.748;19.142;2022-11-20T03:08:30;2.60;99.90
9329;DHT22;4703;48.748;19.142;2022-11-20T03:10:57;2.60;99.90
9329;DHT22;4703;48.748;19.142;2022-11-20T03:13:28;2.60;99.90
9329;DHT22;4703;48.748;19.142;2022-11-20T03:15:55;2.50;99.90
9329;DHT22;4703;48.748;19.142;2022-11-20T03:18:22;2.50;99.90
9329;DHT22;4703;48.748;19.142;2022-11-20T03:20:49;2.40;99.90
9329;DHT22;4703;48.748;19.142;2022-11-20T03:23:16;2.50;99.90
9329;DHT22;4703;48.748;19.142;2022-11-20T03:25:43;2.50;99.90
9329;DHT22;4703;48.748;19.142;2022-11-20T03:28:10;2.60;99.90
9329;DHT22;4703;48.748;19.142;2022-11-20T03:30:37;2.60;99.90
9329;DHT22;4703;48.748;19.142;2022-11-20T03:35:31;2.50;99.90
9329;DHT22;4703;48.748;19.142;2022-11-20T03:37:58;2.50;99.90
9329;DHT22;4703;48.748;19.142;2022-11-20T03:40:25;2.50;99.90
9329;DHT22;4703;48.748;19.142;2022-11-20T03:42:52;2.50;99.90
9329;DHT22;4703;48.748;19.142;2022-11-20T03:45:19;2.50;99.90
9329;DHT22;4703;48.748;19.142;2022-11-20T03:47:46;2.50;99.90
9329;DHT22;4703;48.748;19.142;2022-11-20T03:50:13;2.50;99.90
9329;DHT22;4703;48.748;19.142;2022-11-20T03:52:41;2.60;99.90
9329;DHT22;4703;48.748;19.142;2022-11-20T03:55:08;2.60;99.90
9329;DHT22;4703;48.748;19.142;2022-11-20T03:57:35;2.60;99.90
9329;DHT22;4703;48.748;19.142;2022-11-20T04:00:04;2.60;99.90
9329;DHT22;4703;48.748;19.142;2022-11-20T04:02:31;2.60;99.90
9329;DHT22;4703;48.748;19.142;2022-11-20T04:04:58;2.60;99.90
9329;DHT22;4703;48.748;19.142;2022-11-20T04:07:25;2.50;99.90
9329;DHT22;4703;48.748;19.142;2022-11-20T04:09:52;2.50;99.90
9329;DHT22;4703;48.748;19.142;2022-11-20T04:12:19;2.50;99.90
9329;DHT22;4703;48.748;19.142;2022-11-20T04:14:46;2.50;99.90
9329;DHT22;4703;48.748;19.142;2022-11-20T04:17:13;2.50;99.90
9329;DHT22;4703;48.748;19.142;2022-11-20T04:19:40;2.50;99.90
9329;DHT22;4703;48.748;19.142;2022-11-20T04:22:07;2.60;99.90
9329;DHT22;4703;48.748;19.142;2022-11-20T04:24:34;2.50;99.90
9329;DHT22;4703;48.748;19.142;2022-11-20T04:27:01;2.60;99.90
9329;DHT22;4703;48.748;19.142;2022-11-20T04:29:28;2.60;99.90
9329;DHT22;4703;48.748;19.142;2022-11-20T04:31:55;2.50;99.90
9329;DHT22;4703;48.748;19.142;2022-11-20T04:34:22;2.60;99.90
9329;DHT22;4703;48.748;19.142;2022-11-20T04:36:49;2.60;99.90
9329;DHT22;4703;48.748;19.142;2022-11-20T04:39:16;2.50;99.90
9329;DHT22;4703;48.748;19.142;2022-11-20T04:41:43;2.50;99.90
9329;DHT22;4703;48.748;19.142;2022-11-20T04:44:11;2.60;99.90
9329;DHT22;4703;48.748;19.142;2022-11-20T04:46:42;2.60;99.90
9329;DHT22;4703;48.748;19.142;2022-11-20T04:49:10;2.50;99.90
9329;DHT22;4703;48.748;19.142;2022-11-20T04:51:38;2.50;99.90
9329;DHT22;4703;48.748;19.142;2022-11-20T04:54:05;2.50;99.90
9329;DHT22;4703;48.748;19.142;2022-11-20T04:56:32;2.60;99.90
9329;DHT22;4703;48.748;19.142;2022-11-20T04:59:02;2.60;99.90
9329;DHT22;4703;48.748;19.142;2022-11-20T05:01:29;2.60;99.90
9329;DHT22;4703;48.748;19.142;2022-11-20T05:03:57;2.50;99.90
9329;DHT22;4703;48.748;19.142;2022-11-20T05:06:23;2.60;99.90
9329;DHT22;4703;48.748;19.142;2022-11-20T05:08:50;2.60;99.90
9329;DHT22;4703;48.748;19.142;2022-11-20T05:11:19;2.50;99.90
9329;DHT22;4703;48.748;19.142;2022-11-20T05:13:48;2.60;99.90
9329;DHT22;4703;48.748;19.142;2022-11-20T05:16:18;2.60;99.90
9329;DHT22;4703;48.748;19.142;2022-11-20T05:18:47;2.60;99.90
9329;DHT22;4703;48.748;19.142;2022-11-20T05:21:15;2.60;99.90
9329;DHT22;4703;48.748;19.142;2022-11-20T05:23:42;2.60;99.90
9329;DHT22;4703;48.748;19.142;2022-11-20T05:26:22;2.60;99.90
9329;DHT22;4703;48.748;19.142;2022-11-20T05:28:50;2.70;99.90
9329;DHT22;4703;48.748;19.142;2022-11-20T05:31:23;2.70;99.90
9329;DHT22;4703;48.748;19.142;2022-11-20T05:33:55;2.70;99.90
9329;DHT22;4703;48.748;19.142;2022-11-20T05:36:23;2.70;99.90
9329;DHT22;4703;48.748;19.142;2022-11-20T05:38:50;2.70;99.90
9329;DHT22;4703;48.748;19.142;2022-11-20T05:41:22;2.70;99.90
9329;DHT22;4703;48.748;19.142;2022-11-20T05:43:50;2.70;99.90
9329;DHT22;4703;48.748;19.142;2022-11-20T05:46:20;2.70;99.90
9329;DHT22;4703;48.748;19.142;2022-11-20T05:48:56;2.70;99.90
9329;DHT22;4703;48.748;19.142;2022-11-20T05:51:26;2.70;99.90
9329;DHT22;4703;48.748;19.142;2022-11-20T05:53:55;2.70;99.90
9329;DHT22;4703;48.748;19.142;2022-11-20T05:56:23;2.70;99.90
9329;DHT22;4703;48.748;19.142;2022-11-20T05:58:50;2.70;99.90
9329;DHT22;4703;48.748;19.142;2022-11-20T06:01:22;2.70;99.90
9329;DHT22;4703;48.748;19.142;2022-11-20T06:03:51;2.70;99.90
9329;DHT22;4703;48.748;19.142;2022-11-20T06:06:20;2.70;99.90
9329;DHT22;4703;48.748;19.142;2022-11-20T06:08:47;2.70;99.90
9329;DHT22;4703;48.748;19.142;2022-11-20T06:11:15;2.70;99.90
9329;DHT22;4703;48.748;19.142;2022-11-20T06:13:44;2.70;99.90
9329;DHT22;4703;48.748;19.142;2022-11-20T06:16:15;2.70;99.90
9329;DHT22;4703;48.748;19.142;2022-11-20T06:18:43;2.70;99.90
9329;DHT22;4703;48.748;19.142;2022-11-20T06:21:12;2.70;99.90
9329;DHT22;4703;48.748;19.142;2022-11-20T06:23:46;2.80;99.90
9329;DHT22;4703;48.748;19.142;2022-11-20T06:26:16;2.70;99.90
9329;DHT22;4703;48.748;19.142;2022-11-20T06:28:44;2.70;99.90
9329;DHT22;4703;48.748;19.142;2022-11-20T06:31:14;2.80;99.90
9329;DHT22;4703;48.748;19.142;2022-11-20T06:33:42;2.80;99.90
9329;DHT22;4703;48.748;19.142;2022-11-20T06:36:11;2.70;99.90
9329;DHT22;4703;48.748;19.142;2022-11-20T06:38:40;2.70;99.90
9329;DHT22;4703;48.748;19.142;2022-11-20T06:41:10;2.80;99.90
9329;DHT22;4703;48.748;19.142;2022-11-20T06:43:39;2.80;99.90
9329;DHT22;4703;48.748;19.142;2022-11-20T06:46:06;2.80;99.90
9329;DHT22;4703;48.748;19.142;2022-11-20T06:48:33;2.80;99.90
9329;DHT22;4703;48.748;19.142;2022-11-20T06:51:03;2.80;99.90
9329;DHT22;4703;48.748;19.142;2022-11-20T06:53:31;2.80;99.90
9329;DHT22;4703;48.748;19.142;2022-11-20T06:55:58;2.80;99.90
9329;DHT22;4703;48.748;19.142;2022-11-20T06:58:30;2.90;99.90
9329;DHT22;4703;48.748;19.142;2022-11-20T07:01:04;2.90;99.90
9329;DHT22;4703;48.748;19.142;2022-11-20T07:03:32;2.90;99.90
9329;DHT22;4703;48.748;19.142;2022-11-20T07:06:00;2.90;99.90
9329;DHT22;4703;48.748;19.142;2022-11-20T07:08:28;3.00;99.90
9329;DHT22;4703;48.748;19.142;2022-11-20T07:11:00;2.80;99.90
9329;DHT22;4703;48.748;19.142;2022-11-20T07:13:29;2.90;99.90
9329;DHT22;4703;48.748;19.142;2022-11-20T07:16:03;2.90;99.90
9329;DHT22;4703;48.748;19.142;2022-11-20T07:18:31;2.90;99.90
9329;DHT22;4703;48.748;19.142;2022-11-20T07:21:03;3.00;99.90
9329;DHT22;4703;48.748;19.142;2022-11-20T07:23:31;3.00;99.90
9329;DHT22;4703;48.748;19.142;2022-11-20T07:26:05;3.00;99.90
9329;DHT22;4703;48.748;19.142;2022-11-20T07:28:34;2.90;99.90
9329;DHT22;4703;48.748;19.142;2022-11-20T07:31:01;2.90;99.90
9329;DHT22;4703;48.748;19.142;2022-11-20T07:33:28;2.90;99.90
9329;DHT22;4703;48.748;19.142;2022-11-20T07:35:55;2.90;99.90
9329;DHT22;4703;48.748;19.142;2022-11-20T07:38:22;2.90;99.90
9329;DHT22;4703;48.748;19.142;2022-11-20T07:40:54;2.90;99.90
9329;DHT22;4703;48.748;19.142;2022-11-20T07:43:22;2.90;99.90
9329;DHT22;4703;48.748;19.142;2022-11-20T07:45:49;2.90;99.90
9329;DHT22;4703;48.748;19.142;2022-11-20T07:48:16;2.90;99.90
9329;DHT22;4703;48.748;19.142;2022-11-20T07:50:43;2.90;99.90
9329;DHT22;4703;48.748;19.142;2022-11-20T07:53:10;2.90;99.90
9329;DHT22;4703;48.748;19.142;2022-11-20T07:55:37;2.90;99.90
9329;DHT22;4703;48.748;19.142;2022-11-20T07:58:03;3.00;99.90
9329;DHT22;4703;48.748;19.142;2022-11-20T08:00:30;3.10;99.90
9329;DHT22;4703;48.748;19.142;2022-11-20T08:02:57;3.00;99.90
9329;DHT22;4703;48.748;19.142;2022-11-20T08:05:25;3.50;99.90
9329;DHT22;4703;48.748;19.142;2022-11-20T08:07:52;3.10;99.90
9329;DHT22;4703;48.748;19.142;2022-11-20T08:10:19;3.20;99.90
9329;DHT22;4703;48.748;19.142;2022-11-20T08:12:46;3.30;99.90
9329;DHT22;4703;48.748;19.142;2022-11-20T08:15:33;3.30;99.90
9329;DHT22;4703;48.748;19.142;2022-11-20T08:18:11;3.50;99.90
9329;DHT22;4703;48.748;19.142;2022-11-20T08:21:02;4.40;99.90
9329;DHT22;4703;48.748;19.142;2022-11-20T08:23:30;3.60;99.90
9329;DHT22;4703;48.748;19.142;2022-11-20T08:25:57;3.60;99.90
9329;DHT22;4703;48.748;19.142;2022-11-20T08:28:24;3.60;99.90
9329;DHT22;4703;48.748;19.142;2022-11-20T08:31:01;3.50;99.90
9329;DHT22;4703;48.748;19.142;2022-11-20T08:33:29;3.70;99.90
9329;DHT22;4703;48.748;19.142;2022-11-20T08:36:00;3.70;99.90
9329;DHT22;4703;48.748;19.142;2022-11-20T08:38:31;3.70;99.90
9329;DHT22;4703;48.748;19.142;2022-11-20T08:40:59;4.80;99.90
9329;DHT22;4703;48.748;19.142;2022-11-20T08:43:46;3.70;99.90
9329;DHT22;4703;48.748;19.142;2022-11-20T08:46:13;3.80;99.90
9329;DHT22;4703;48.748;19.142;2022-11-20T08:48:40;3.80;99.90
9329;DHT22;4703;48.748;19.142;2022-11-20T08:51:07;3.80;99.90
9329;DHT22;4703;48.748;19.142;2022-11-20T08:53:34;3.80;99.90
9329;DHT22;4703;48.748;19.142;2022-11-20T08:56:01;3.80;99.90
9329;DHT22;4703;48.748;19.142;2022-11-20T08:58:28;3.80;99.90
9329;DHT22;4703;48.748;19.142;2022-11-20T09:00:56;5.20;99.90
9329;DHT22;4703;48.748;19.142;2022-11-20T09:03:23;3.80;99.90
9329;DHT22;4703;48.748;19.142;2022-11-20T09:05:59;4.20;99.90
9329;DHT22;4703;48.748;19.142;2022-11-20T09:08:28;3.80;99.90
9329;DHT22;4703;48.748;19.142;2022-11-20T09:10:56;3.70;99.90
9329;DHT22;4703;48.748;19.142;2022-11-20T09:13:26;3.70;99.90
9329;DHT22;4703;48.748;19.142;2022-11-20T09:15:59;3.70;99.90
9329;DHT22;4703;48.748;19.142;2022-11-20T09:18:28;3.70;99.90
9329;DHT22;4703;48.748;19.142;2022-11-20T09:20:59;3.70;99.90
9329;DHT22;4703;48.748;19.142;2022-11-20T09:23:30;3.80;99.90
9329;DHT22;4703;48.748;19.142;2022-11-20T09:25:58;3.70;99.90
9329;DHT22;4703;48.748;19.142;2022-11-20T09:28:26;3.80;99.90
9329;DHT22;4703;48.748;19.142;2022-11-20T09:30:53;3.80;99.90
9329;DHT22;4703;48.748;19.142;2022-11-20T09:33:20;3.80;99.90
9329;DHT22;4703;48.748;19.142;2022-11-20T09:35:47;3.80;99.90
9329;DHT22;4703;48.748;19.142;2022-11-20T09:38:14;3.80;99.90
9329;DHT22;4703;48.748;19.142;2022-11-20T09:40:59;3.80;99.90
9329;DHT22;4703;48.748;19.142;2022-11-20T09:43:50;3.90;99.90
9329;DHT22;4703;48.748;19.142;2022-11-20T09:49:59;3.80;99.90
9329;DHT22;4703;48.748;19.142;2022-11-20T09:52:57;3.80;99.90
9329;DHT22;4703;48.748;19.142;2022-11-20T09:55:36;6.30;99.90
9329;DHT22;4703;48.748;19.142;2022-11-20T09:58:06;3.80;99.90
9329;DHT22;4703;48.748;19.142;2022-11-20T10:00:35;3.70;99.90
9329;DHT22;4703;48.748;19.142;2022-11-20T10:03:14;3.80;99.90
9329;DHT22;4703;48.748;19.142;2022-11-20T10:05:52;3.80;99.90
9329;DHT22;4703;48.748;19.142;2022-11-20T10:08:24;3.90;99.90
9329;DHT22;4703;48.748;19.142;2022-11-20T10:10:58;3.90;99.90
9329;DHT22;4703;48.748;19.142;2022-11-20T10:13:54;3.90;99.90
9329;DHT22;4703;48.748;19.142;2022-11-20T10:16:52;3.90;99.90
9329;DHT22;4703;48.748;19.142;2022-11-20T10:26:00;4.10;99.90
9329;DHT22;4703;48.748;19.142;2022-11-20T10:29:33;4.10;99.90
9329;DHT22;4703;48.748;19.142;2022-11-20T10:31:44;4.20;99.90
9329;DHT22;4703;48.748;19.142;2022-11-20T10:34:24;4.30;99.90
9329;DHT22;4703;48.748;19.142;2022-11-20T10:37:11;4.40;99.90
9329;DHT22;4703;48.748;19.142;2022-11-20T10:42:45;4.80;99.90
9329;DHT22;4703;48.748;19.142;2022-11-20T10:45:40;5.10;99.90
9329;DHT22;4703;48.748;19.142;2022-11-20T10:48:23;5.40;99.90
9329;DHT22;4703;48.748;19.142;2022-11-20T10:53:40;6.10;99.90
9329;DHT22;4703;48.748;19.142;2022-11-20T11:07:58;7.70;99.80
9329;DHT22;4703;48.748;19.142;2022-11-20T11:10:39;8.00;99.30
9329;DHT22;4703;48.748;19.142;2022-11-20T11:13:25;9.10;98.70
9329;DHT22;4703;48.748;19.142;2022-11-20T11:15:54;8.20;98.10
9329;DHT22;4703;48.748;19.142;2022-11-20T11:18:33;8.20;98.00
9329;DHT22;4703;48.748;19.142;2022-11-20T11:21:03;8.10;98.10
9329;DHT22;4703;48.748;19.142;2022-11-20T11:23:42;8.00;98.10
9329;DHT22;4703;48.748;19.142;2022-11-20T11:26:23;7.80;97.90
9329;DHT22;4703;48.748;19.142;2022-11-20T11:28:58;7.80;98.20
9329;DHT22;4703;48.748;19.142;2022-11-20T11:31:28;7.60;97.80
9329;DHT22;4703;48.748;19.142;2022-11-20T11:36:34;7.30;98.10
9329;DHT22;4703;48.748;19.142;2022-11-20T11:39:06;7.10;98.30
9329;DHT22;4703;48.748;19.142;2022-11-20T11:41:38;6.90;98.60
9329;DHT22;4703;48.748;19.142;2022-11-20T11:47:29;6.60;99.20
9329;DHT22;4703;48.748;19.142;2022-11-20T11:50:18;6.40;99.80
9329;DHT22;4703;48.748;19.142;2022-11-20T11:53:09;6.30;99.90
9329;DHT22;4703;48.748;19.142;2022-11-20T11:55:43;6.10;99.90
9329;DHT22;4703;48.748;19.142;2022-11-20T11:58:44;6.10;99.90
9329;DHT22;4703;48.748;19.142;2022-11-20T12:01:26;6.00;99.90
9329;DHT22;4703;48.748;19.142;2022-11-20T12:04:20;5.90;99.90
9329;DHT22;4703;48.748;19.142;2022-11-20T12:07:12;5.90;99.90
9329;DHT22;4703;48.748;19.142;2022-11-20T12:10:04;5.80;99.90
9329;DHT22;4703;48.748;19.142;2022-11-20T12:12:40;5.80;99.90
9329;DHT22;4703;48.748;19.142;2022-11-20T12:15:11;5.70;99.90
9329;DHT22;4703;48.748;19.142;2022-11-20T12:17:49;5.70;99.90
9329;DHT22;4703;48.748;19.142;2022-11-20T12:20:16;5.70;99.90
9329;DHT22;4703;48.748;19.142;2022-11-20T12:25:32;5.60;99.90
9329;DHT22;4703;48.748;19.142;2022-11-20T12:28:30;5.70;99.90
9329;DHT22;4703;48.748;19.142;2022-11-20T12:34:38;5.80;99.90
9329;DHT22;4703;48.748;19.142;2022-11-20T12:39:53;6.00;99.90
9329;DHT22;4703;48.748;19.142;2022-11-20T12:45:42;6.00;99.90
9329;DHT22;4703;48.748;19.142;2022-11-20T12:51:29;6.10;99.90
9329;DHT22;4703;48.748;19.142;2022-11-20T12:57:27;6.10;99.90
9329;DHT22;4703;48.748;19.142;2022-11-20T13:02:41;6.10;99.90
9329;DHT22;4703;48.748;19.142;2022-11-20T13:06:19;6.10;99.90
9329;DHT22;4703;48.748;19.142;2022-11-20T13:08:36;6.30;99.90
9329;DHT22;4703;48.748;19.142;2022-11-20T13:19:33;7.40;99.90
9329;DHT22;4703;48.748;19.142;2022-11-20T13:22:00;7.80;99.40
9329;DHT22;4703;48.748;19.142;2022-11-20T13:24:29;8.20;98.70
9329;DHT22;4703;48.748;19.142;2022-11-20T13:30:00;9.90;97.90
9329;DHT22;4703;48.748;19.142;2022-11-20T13:32:29;9.10;96.80
9329;DHT22;4703;48.748;19.142;2022-11-20T13:35:03;9.10;96.80
9329;DHT22;4703;48.748;19.142;2022-11-20T13:37:36;9.00;96.50
9329;DHT22;4703;48.748;19.142;2022-11-20T13:45:21;8.40;95.80
9329;DHT22;4703;48.748;19.142;2022-11-20T13:47:51;8.00;95.90
9329;DHT22;4703;48.748;19.142;2022-11-20T13:50:19;7.80;96.80
9329;DHT22;4703;48.748;19.142;2022-11-20T13:53:01;10.20;97.50
9329;DHT22;4703;48.748;19.142;2022-11-20T13:55:54;7.50;97.10
9329;DHT22;4703;48.748;19.142;2022-11-20T13:58:36;7.30;97.70
9329;DHT22;4703;48.748;19.142;2022-11-20T14:01:16;7.20;98.20
9329;DHT22;4703;48.748;19.142;2022-11-20T14:03:46;7.10;98.00
9329;DHT22;4703;48.748;19.142;2022-11-20T14:06:40;7.00;98.30
9329;DHT22;4703;48.748;19.142;2022-11-20T14:09:11;6.90;98.20
9329;DHT22;4703;48.748;19.142;2022-11-20T14:11:46;6.90;98.30
9329;DHT22;4703;48.748;19.142;2022-11-20T14:14:20;6.80;98.30
9329;DHT22;4703;48.748;19.142;2022-11-20T14:16:53;6.70;98.60
9329;DHT22;4703;48.748;19.142;2022-11-20T14:19:31;6.70;98.80
9329;DHT22;4703;48.748;19.142;2022-11-20T14:22:17;6.60;98.50
9329;DHT22;4703;48.748;19.142;2022-11-20T14:24:47;6.60;98.80
9329;DHT22;4703;48.748;19.142;2022-11-20T14:27:18;6.50;98.60
9329;DHT22;4703;48.748;19.142;2022-11-20T14:29:48;7.80;99.50
9329;DHT22;4703;48.748;19.142;2022-11-20T14:32:22;6.30;98.70
9329;DHT22;4703;48.748;19.142;2022-11-20T14:34:51;6.20;98.80
9329;DHT22;4703;48.748;19.142;2022-11-20T14:37:25;9.10;99.90
9329;DHT22;4703;48.748;19.142;2022-11-20T14:39:56;6.10;99.10
9329;DHT22;4703;48.748;19.142;2022-11-20T14:42:26;6.00;99.00
9329;DHT22;4703;48.748;19.142;2022-11-20T14:44:57;8.20;99.90
9329;DHT22;4703;48.748;19.142;2022-11-20T14:47:27;5.90;99.20
9329;DHT22;4703;48.748;19.142;2022-11-20T14:49:57;5.80;99.40
9329;DHT22;4703;48.748;19.142;2022-11-20T14:52:26;5.70;99.40
9329;DHT22;4703;48.748;19.142;2022-11-20T14:54:56;5.60;99.60
9329;DHT22;4703;48.748;19.142;2022-11-20T14:57:29;5.60;99.70
9329;DHT22;4703;48.748;19.142;2022-11-20T15:02:41;5.50;99.90
9329;DHT22;4703;48.748;19.142;2022-11-20T15:05:09;8.00;99.90
9329;DHT22;4703;48.748;19.142;2022-11-20T15:07:39;5.20;99.90
9329;DHT22;4703;48.748;19.142;2022-11-20T15:10:23;5.30;99.90
9329;DHT22;4703;48.748;19.142;2022-11-20T15:12:55;5.20;99.90
9329;DHT22;4703;48.748;19.142;2022-11-20T15:15:36;8.40;99.90
9329;DHT22;4703;48.748;19.142;2022-11-20T15:18:21;5.10;99.90
9329;DHT22;4703;48.748;19.142;2022-11-20T15:20:50;5.00;99.90
9329;DHT22;4703;48.748;19.142;2022-11-20T15:23:18;4.90;99.90
9329;DHT22;4703;48.748;19.142;2022-11-20T15:25:47;4.90;99.90
9329;DHT22;4703;48.748;19.142;2022-11-20T15:28:24;4.90;99.90
9329;DHT22;4703;48.748;19.142;2022-11-20T15:30:57;4.80;99.90
9329;DHT22;4703;48.748;19.142;2022-11-20T15:33:24;4.70;99.90
9329;DHT22;4703;48.748;19.142;2022-11-20T15:35:51;4.70;99.90
9329;DHT22;4703;48.748;19.142;2022-11-20T15:38:18;4.60;99.90
9329;DHT22;4703;48.748;19.142;2022-11-20T15:40:45;4.50;99.90
9329;DHT22;4703;48.748;19.142;2022-11-20T15:43:12;4.50;99.90
9329;DHT22;4703;48.748;19.142;2022-11-20T15:45:45;4.30;99.90
9329;DHT22;4703;48.748;19.142;2022-11-20T15:51:35;4.20;99.90
9329;DHT22;4703;48.748;19.142;2022-11-20T15:54:24;4.00;99.90
9329;DHT22;4703;48.748;19.142;2022-11-20T15:56:51;3.90;99.90
9329;DHT22;4703;48.748;19.142;2022-11-20T15:59:19;3.90;99.90
9329;DHT22;4703;48.748;19.142;2022-11-20T16:01:46;3.90;99.90
9329;DHT22;4703;48.748;19.142;2022-11-20T16:04:15;3.80;99.90
9329;DHT22;4703;48.748;19.142;2022-11-20T16:06:42;3.80;99.90
9329;DHT22;4703;48.748;19.142;2022-11-20T16:09:10;3.80;99.90
9329;DHT22;4703;48.748;19.142;2022-11-20T16:11:37;3.80;99.90
9329;DHT22;4703;48.748;19.142;2022-11-20T16:14:04;6.40;99.90
9329;DHT22;4703;48.748;19.142;2022-11-20T16:16:51;3.80;99.90
9329;DHT22;4703;48.748;19.142;2022-11-20T16:19:18;3.80;99.90
9329;DHT22;4703;48.748;19.142;2022-11-20T16:21:45;3.80;99.90
9329;DHT22;4703;48.748;19.142;2022-11-20T16:24:13;3.80;99.90
9329;DHT22;4703;48.748;19.142;2022-11-20T16:26:41;3.80;99.90
9329;DHT22;4703;48.748;19.142;2022-11-20T16:29:09;7.20;99.90
9329;DHT22;4703;48.748;19.142;2022-11-20T16:31:36;3.70;99.90
9329;DHT22;4703;48.748;19.142;2022-11-20T16:34:05;3.60;99.90
9329;DHT22;4703;48.748;19.142;2022-11-20T16:36:42;3.50;99.90
9329;DHT22;4703;48.748;19.142;2022-11-20T16:39:10;3.50;99.90
9329;DHT22;4703;48.748;19.142;2022-11-20T16:41:38;3.40;99.90
9329;DHT22;4703;48.748;19.142;2022-11-20T16:44:10;3.50;99.90
9329;DHT22;4703;48.748;19.142;2022-11-20T16:46:37;3.50;99.90
9329;DHT22;4703;48.748;19.142;2022-11-20T16:49:10;3.40;99.90
9329;DHT22;4703;48.748;19.142;2022-11-20T16:51:39;3.40;99.90
9329;DHT22;4703;48.748;19.142;2022-11-20T16:54:08;3.30;99.90
9329;DHT22;4703;48.748;19.142;2022-11-20T16:56:36;3.20;99.90
9329;DHT22;4703;48.748;19.142;2022-11-20T16:59:04;3.30;99.90
9329;DHT22;4703;48.748;19.142;2022-11-20T17:01:31;3.20;99.90
9329;DHT22;4703;48.748;19.142;2022-11-20T17:03:59;3.10;99.90
9329;DHT22;4703;48.748;19.142;2022-11-20T17:06:29;3.10;99.90
9329;DHT22;4703;48.748;19.142;2022-11-20T17:08:58;3.00;99.90
9329;DHT22;4703;48.748;19.142;2022-11-20T17:11:26;3.00;99.90
9329;DHT22;4703;48.748;19.142;2022-11-20T17:13:57;3.00;99.90
9329;DHT22;4703;48.748;19.142;2022-11-20T17:16:29;3.00;99.90
9329;DHT22;4703;48.748;19.142;2022-11-20T17:18:58;3.00;99.90
9329;DHT22;4703;48.748;19.142;2022-11-20T17:21:28;2.90;99.90
9329;DHT22;4703;48.748;19.142;2022-11-20T17:23:58;2.90;99.90
9329;DHT22;4703;48.748;19.142;2022-11-20T17:26:26;2.80;99.90
9329;DHT22;4703;48.748;19.142;2022-11-20T17:29:17;2.70;99.90
9329;DHT22;4703;48.748;19.142;2022-11-20T17:31:44;2.70;99.90
9329;DHT22;4703;48.748;19.142;2022-11-20T17:34:13;2.70;99.90
9329;DHT22;4703;48.748;19.142;2022-11-20T17:36:41;2.80;99.90
9329;DHT22;4703;48.748;19.142;2022-11-20T17:39:15;2.70;99.90
9329;DHT22;4703;48.748;19.142;2022-11-20T17:41:43;2.80;99.90
9329;DHT22;4703;48.748;19.142;2022-11-20T17:44:11;2.70;99.90
9329;DHT22;4703;48.748;19.142;2022-11-20T17:46:38;2.70;99.90
9329;DHT22;4703;48.748;19.142;2022-11-20T17:49:05;2.80;99.90
9329;DHT22;4703;48.748;19.142;2022-11-20T17:51:33;2.80;99.90
9329;DHT22;4703;48.748;19.142;2022-11-20T17:54:04;2.80;99.90
9329;DHT22;4703;48.748;19.142;2022-11-20T17:56:34;2.90;99.90
9329;DHT22;4703;48.748;19.142;2022-11-20T17:59:20;2.90;99.90
9329;DHT22;4703;48.748;19.142;2022-11-20T18:01:47;2.90;99.90